Time;durP1;ratioP1;P1;durP2;ratioP2;P2;SDS_P1;SDS_P2;PMS_P1;PMS_P2;Temp;Humidity;BMP_temperature;BMP_pressure;BME280_temperature;BME280_humidity;BME280_pressure;Samples;Min_cycle;Max_cycle;Signal;HPM_P1;HPM_P2
2022/01/14 00:01:54;;;;;;;3.92;2.42;;;;;;;26.13;28.48;98464.25;4920789;28;20038;-58
2022/01/14 00:04:20;;;;;;;3.00;2.22;;;;;;;26.13;28.32;98464.25;4932244;28;20557;-58
2022/01/14 00:06:45;;;;;;;3.25;2.45;;;;;;;26.12;28.38;98465.16;4935982;28;20369;-57
2022/01/14 00:09:12;;;;;;;2.40;2.00;;;;;;;26.12;28.29;98468.63;4936933;28;20784;-58
2022/01/14 00:11:48;;;;;;;2.95;2.20;;;;;;;26.12;28.43;98459.91;4933748;28;20034;-58
2022/01/14 00:16:39;;;;;;;3.28;2.08;;;;;;;26.12;28.33;98465.16;4931204;28;20105;-58
2022/01/14 00:19:05;;;;;;;4.28;2.35;;;;;;;26.10;28.40;98466.03;4920163;28;20181;-56
2022/01/14 00:21:32;;;;;;;3.28;2.13;;;;;;;26.09;28.25;98459.06;4937781;28;20583;-59
2022/01/14 00:32:10;;;;;;;3.63;1.98;;;;;;;26.08;28.42;98446.84;4940706;28;20042;-59
2022/01/14 00:34:35;;;;;;;2.53;1.83;;;;;;;26.08;28.36;98444.22;4936649;28;20158;-56
2022/01/14 00:37:01;;;;;;;3.28;2.30;;;;;;;26.07;28.33;98442.50;4940588;28;20453;-57
2022/01/14 00:39:26;;;;;;;3.65;2.42;;;;;;;26.06;28.30;98438.16;4939231;28;21052;-58
2022/01/14 00:41:52;;;;;;;3.10;2.38;;;;;;;26.07;28.35;98439.88;4940984;28;20382;-57
2022/01/14 00:44:17;;;;;;;4.82;2.30;;;;;;;26.07;28.34;98439.88;4935860;28;20409;-59
2022/01/14 00:46:44;;;;;;;3.65;2.28;;;;;;;26.06;28.45;98432.91;4922818;28;20417;-59
2022/01/14 00:49:09;;;;;;;3.03;2.40;;;;;;;26.06;28.39;98432.91;4924081;28;20101;-59
2022/01/14 00:51:35;;;;;;;3.35;2.15;;;;;;;26.06;28.31;98442.53;4927238;28;21712;-61
2022/01/14 00:54:02;;;;;;;3.85;2.08;;;;;;;26.06;28.43;98438.16;4941489;28;20061;-58
2022/01/14 00:56:32;;;;;;;2.42;2.05;;;;;;;26.05;28.44;98444.28;4940111;28;20171;-58
2022/01/14 00:59:17;;;;;;;2.33;1.90;;;;;;;26.04;28.45;98437.31;4936194;28;21390;-56
2022/01/14 01:01:56;;;;;;;2.67;2.10;;;;;;;26.05;28.45;98432.94;4932819;28;20781;-56
2022/01/14 01:04:32;;;;;;;4.53;2.22;;;;;;;26.03;28.37;98435.59;4934355;28;20592;-59
2022/01/14 01:06:58;;;;;;;3.97;2.20;;;;;;;26.03;28.28;98435.59;4933067;28;20038;-57
2022/01/14 01:09:25;;;;;;;2.42;1.90;;;;;;;26.02;28.30;98436.50;4928860;28;20027;-58
2022/01/14 01:11:54;;;;;;;2.30;1.92;;;;;;;26.01;28.45;98424.25;4925921;28;20038;-59
2022/01/14 01:14:26;;;;;;;2.75;1.90;;;;;;;26.01;28.39;98429.50;4933977;28;20027;-57
2022/01/14 01:16:51;;;;;;;;;;;;;;;26.02;28.24;98428.63;4935624;28;20043;-58
2022/01/14 01:19:17;;;;;;;2.40;1.90;;;;;;;25.99;28.31;98420.84;4937439;28;19929;-58
2022/01/14 01:21:42;;;;;;;3.05;2.10;;;;;;;26.01;28.36;98418.16;4940241;28;20046;-58
2022/01/14 01:24:09;;;;;;;2.83;2.30;;;;;;;25.99;28.29;98420.84;4940637;28;20031;-58
2022/01/14 01:26:38;;;;;;;3.22;1.98;;;;;;;26.00;28.24;98421.69;4937667;28;20035;-59
2022/01/14 01:31:40;;;;;;;2.13;1.90;;;;;;;25.99;28.46;98426.09;4937341;28;20031;-58
2022/01/14 01:34:12;;;;;;;2.65;2.05;;;;;;;25.98;28.29;98424.38;4947824;28;20162;-59
2022/01/14 01:36:39;;;;;;;2.92;2.00;;;;;;;25.97;28.22;98427.88;4953157;28;20640;-59
2022/01/14 01:39:06;;;;;;;3.05;2.03;;;;;;;25.98;28.30;98421.75;4935395;28;20041;-58
2022/01/14 01:41:33;;;;;;;3.95;2.15;;;;;;;25.98;28.48;98419.13;4936988;28;20681;-57
2022/01/14 01:43:59;;;;;;;2.47;1.95;;;;;;;25.97;28.42;98420.00;4934514;28;20034;-58
2022/01/14 01:46:25;;;;;;;2.00;1.80;;;;;;;25.97;28.30;98422.63;4937128;28;21379;-59
2022/01/14 01:48:51;;;;;;;2.35;1.73;;;;;;;25.97;28.31;98422.63;4939616;28;21057;-56
2022/01/14 01:51:17;;;;;;;2.35;1.73;;;;;;;25.97;28.20;98422.63;4935446;28;20033;-60
2022/01/14 01:53:42;;;;;;;2.13;1.85;;;;;;;25.96;28.44;98420.91;4934931;28;20666;-59
2022/01/14 01:56:08;;;;;;;2.45;1.77;;;;;;;25.96;28.31;98420.91;4936319;28;20027;-59
2022/01/14 01:58:33;;;;;;;2.65;1.77;;;;;;;25.97;28.30;98425.25;4939247;28;20035;-60
2022/01/14 02:00:59;;;;;;;2.58;2.00;;;;;;;25.96;28.27;98423.53;4937715;28;20049;-59
2022/01/14 02:03:24;;;;;;;2.10;1.80;;;;;;;25.96;28.23;98424.41;4937536;28;20086;-59
2022/01/14 02:05:50;;;;;;;2.90;1.95;;;;;;;25.96;28.32;98420.91;4937619;28;20039;-58
2022/01/14 02:08:15;;;;;;;2.40;2.00;;;;;;;25.96;28.32;98427.03;4935909;28;20112;-59
2022/01/14 02:10:41;;;;;;;3.50;2.03;;;;;;;25.95;28.38;98424.44;4951621;28;20122;-59
2022/01/14 02:13:07;;;;;;;2.65;1.90;;;;;;;25.96;28.29;98426.16;4940448;28;20026;-59
2022/01/14 02:15:48;;;;;;;3.10;1.98;;;;;;;25.94;28.26;98426.19;4936652;28;20134;-60
2022/01/14 02:23:33;;;;;;;2.35;1.90;;;;;;;25.93;28.43;98411.34;4940567;28;20037;-58
2022/01/14 02:25:58;;;;;;;2.10;1.73;;;;;;;25.93;28.29;98415.75;4938501;28;20034;-59
2022/01/14 02:28:23;;;;;;;2.03;1.70;;;;;;;25.92;28.46;98408.75;4939383;28;20682;-58
2022/01/14 02:30:52;;;;;;;2.90;1.98;;;;;;;25.92;28.46;98409.63;4939320;28;20027;-58
2022/01/14 02:33:18;;;;;;;3.97;1.88;;;;;;;25.93;28.28;98406.09;4938277;28;20621;-58
2022/01/14 02:35:45;;;;;;;3.72;1.58;;;;;;;25.91;28.38;98407.91;4941938;28;20040;-58
2022/01/14 02:38:11;;;;;;;2.10;1.70;;;;;;;25.90;28.37;98407.97;4942228;28;20065;-58
2022/01/14 02:40:37;;;;;;;2.13;1.83;;;;;;;25.91;28.38;98412.31;4944352;28;20415;-59
2022/01/14 02:43:05;;;;;;;1.98;1.67;;;;;;;25.91;28.34;98412.31;4939975;28;22181;-58
2022/01/14 02:45:32;;;;;;;1.70;1.60;;;;;;;25.91;28.29;98401.78;4941493;28;20046;-59
2022/01/14 02:48:01;;;;;;;2.70;1.90;;;;;;;25.92;28.48;98398.25;4947464;28;20034;-59
2022/01/14 02:50:36;;;;;;;2.10;1.73;;;;;;;25.91;28.29;98401.78;4949267;28;20129;-59
2022/01/14 02:53:11;;;;;;;2.25;1.70;;;;;;;25.91;28.18;98396.53;4947885;28;20031;-58
2022/01/14 02:55:43;;;;;;;1.83;1.60;;;;;;;25.89;28.44;98393.09;4945458;28;20067;-58
2022/01/14 02:58:08;;;;;;;1.95;1.70;;;;;;;25.90;28.60;98390.41;4955389;28;20057;-58
2022/01/14 03:00:33;;;;;;;2.08;1.75;;;;;;;25.89;28.44;98386.06;4924963;28;20035;-58
2022/01/14 03:03:00;;;;;;;2.28;1.73;;;;;;;25.89;28.44;98377.34;4939601;28;20988;-57
2022/01/14 03:05:26;;;;;;;1.95;1.67;;;;;;;25.88;28.45;98376.47;4945900;28;20027;-58
2022/01/14 03:07:52;;;;;;;1.90;1.67;;;;;;;25.87;28.32;98371.25;4939629;28;20035;-58
2022/01/14 03:10:18;;;;;;;2.00;1.80;;;;;;;25.88;28.26;98375.59;4937934;28;20706;-59
2022/01/14 03:12:43;;;;;;;2.10;1.70;;;;;;;25.88;28.45;98375.59;4938953;28;20065;-60
2022/01/14 03:15:09;;;;;;;2.63;1.98;;;;;;;25.88;28.25;98367.72;4938888;28;20118;-58
2022/01/14 03:17:35;;;;;;;2.10;1.60;;;;;;;25.86;28.29;98364.31;4934633;28;20035;-58
2022/01/14 03:20:01;;;;;;;2.35;1.73;;;;;;;25.87;28.44;98368.63;4937828;28;20049;-60
2022/01/14 03:22:35;;;;;;;1.73;1.40;;;;;;;25.87;28.40;98368.63;4934434;28;20030;-59
2022/01/14 03:27:45;;;;;;;2.35;1.60;;;;;;;25.86;28.28;98361.66;4940457;28;20045;-59
2022/01/14 03:30:12;;;;;;;1.73;1.45;;;;;;;25.85;28.40;98358.16;4938482;28;20035;-58
2022/01/14 03:32:38;;;;;;;2.65;1.65;;;;;;;25.83;28.40;98360.84;4936654;28;20490;-58
2022/01/14 03:35:03;;;;;;;1.85;1.50;;;;;;;25.83;28.44;98352.97;4936486;28;20054;-59
2022/01/14 03:37:29;;;;;;;2.30;1.70;;;;;;;25.84;28.41;98353.84;4940867;28;20125;-62
2022/01/14 03:39:54;;;;;;;2.22;1.85;;;;;;;25.83;28.42;98352.97;4937557;28;20031;-59
2022/01/14 03:42:19;;;;;;;1.90;1.50;;;;;;;25.82;28.31;98353.88;4946691;28;20030;-58
2022/01/14 03:44:45;;;;;;;1.80;1.60;;;;;;;25.83;28.43;98349.50;4948120;28;20046;-58
2022/01/14 03:47:10;;;;;;;4.00;1.60;;;;;;;25.81;28.37;98346.91;4947887;28;20034;-59
2022/01/14 03:49:36;;;;;;;2.35;1.50;;;;;;;25.82;28.32;98351.25;4945170;28;20046;-58
2022/01/14 03:52:01;;;;;;;1.70;1.50;;;;;;;25.82;28.41;98348.63;4944341;28;20031;-56
2022/01/14 03:54:27;;;;;;;2.42;1.58;;;;;;;25.82;28.40;98350.41;4945615;28;20109;-57
2022/01/14 03:56:52;;;;;;;1.58;1.38;;;;;;;25.81;28.49;98349.53;4947341;28;20031;-58
2022/01/14 03:59:17;;;;;;;2.30;1.80;;;;;;;25.80;28.29;98353.06;4944478;28;20108;-58
2022/01/14 04:01:43;;;;;;;1.85;1.60;;;;;;;25.79;28.42;98348.72;4943797;28;20027;-58
2022/01/14 04:04:08;;;;;;;1.77;1.50;;;;;;;25.80;28.42;98342.56;4948111;28;20026;-59
2022/01/14 04:06:34;;;;;;;2.30;1.73;;;;;;;25.80;28.36;98341.69;4941312;28;20047;-58
2022/01/14 04:08:59;;;;;;;1.67;1.42;;;;;;;25.79;28.32;98340.84;4947718;28;20062;-59
2022/01/14 04:11:24;;;;;;;3.35;1.55;;;;;;;25.80;28.43;98342.56;4941475;28;20035;-59
2022/01/14 04:13:53;;;;;;;2.67;1.65;;;;;;;25.79;28.36;98335.59;4947739;28;20038;-58
2022/01/14 04:16:19;;;;;;;1.80;1.50;;;;;;;25.78;28.45;98333.84;4947137;28;20030;-58
2022/01/14 04:18:45;;;;;;;2.40;1.85;;;;;;;25.78;28.43;98333.84;4946841;28;20793;-59
2022/01/14 04:21:10;;;;;;;1.33;1.20;;;;;;;25.78;28.49;98336.47;4947642;28;20038;-58
2022/01/14 04:23:36;;;;;;;2.17;1.60;;;;;;;25.78;28.44;98333.00;4946626;28;20153;-59
2022/01/14 04:26:01;;;;;;;2.25;1.73;;;;;;;25.76;28.47;98327.81;4944017;28;20031;-60
2022/01/14 04:28:33;;;;;;;2.17;1.67;;;;;;;25.76;28.44;98327.81;4941347;28;20035;-59
2022/01/14 04:30:58;;;;;;;2.33;1.50;;;;;;;25.76;28.38;98325.19;4921477;28;20023;-59
2022/01/14 04:33:25;;;;;;;2.05;1.33;;;;;;;25.75;28.47;98327.84;4940421;28;20500;-57
2022/01/14 04:35:51;;;;;;;2.72;1.75;;;;;;;25.74;28.19;98326.13;4945010;28;20033;-59
2022/01/14 04:38:16;;;;;;;1.65;1.38;;;;;;;25.75;28.51;98333.97;4944035;28;20587;-58
2022/01/14 04:40:41;;;;;;;1.65;1.48;;;;;;;25.75;28.39;98328.72;4944121;28;20031;-58
2022/01/14 04:43:07;;;;;;;1.60;1.50;;;;;;;25.75;28.35;98328.72;4941718;28;20031;-58
2022/01/14 04:48:01;;;;;;;1.52;1.42;;;;;;;25.75;28.53;98325.22;4941906;28;20090;-59
2022/01/14 04:50:27;;;;;;;2.50;1.50;;;;;;;25.74;28.46;98326.97;4944250;28;20038;-58
2022/01/14 04:52:52;;;;;;;2.45;1.63;;;;;;;25.74;28.52;98323.50;4947617;28;20685;-58
2022/01/14 04:55:21;;;;;;;2.03;1.55;;;;;;;25.73;28.37;98321.78;4948154;28;20114;-58
2022/01/14 04:57:47;;;;;;;4.97;1.45;;;;;;;25.72;28.55;98312.16;4955895;28;20034;-57
2022/01/14 05:00:26;;;;;;;2.58;1.10;;;;;;;25.73;28.41;98313.91;4948091;28;20031;-56
2022/01/14 05:02:53;;;;;;;1.50;1.40;;;;;;;25.73;28.43;98314.75;4950379;28;20027;-59
2022/01/14 05:05:21;;;;;;;1.95;1.48;;;;;;;25.74;28.54;98310.38;4948616;28;20552;-58
2022/01/14 05:07:48;;;;;;;1.55;1.25;;;;;;;25.72;28.46;98309.53;4947185;28;20030;-58
2022/01/14 05:10:22;;;;;;;1.70;1.40;;;;;;;25.70;28.58;98304.31;4951566;28;20037;-58
2022/01/14 05:12:48;;;;;;;1.88;1.40;;;;;;;25.72;28.44;98315.66;4943476;28;20027;-58
2022/01/14 05:15:16;;;;;;;1.80;1.30;;;;;;;25.69;28.58;98306.09;4965601;28;20034;-57
2022/01/14 05:17:41;;;;;;;2.00;1.48;;;;;;;25.71;28.46;98303.44;4959189;28;20531;-58
2022/01/14 05:20:07;;;;;;;4.43;1.40;;;;;;;25.70;28.57;98299.94;4962059;28;20032;-57
2022/01/14 05:22:33;;;;;;;2.00;1.40;;;;;;;25.70;28.55;98296.44;4960029;28;20073;-58
2022/01/14 05:24:58;;;;;;;1.58;1.48;;;;;;;25.70;28.59;98304.31;4950577;28;20731;-58
2022/01/14 05:27:24;;;;;;;1.88;1.40;;;;;;;25.70;28.55;98299.06;4946131;28;20043;-58
2022/01/14 05:29:49;;;;;;;1.65;1.20;;;;;;;25.69;28.44;98292.97;4947910;28;20039;-57
2022/01/14 05:32:15;;;;;;;1.90;1.38;;;;;;;25.70;28.54;98291.19;4950022;28;20093;-59
2022/01/14 05:34:42;;;;;;;1.88;1.40;;;;;;;25.69;28.43;98297.38;4934681;28;20241;-59
2022/01/14 05:37:08;;;;;;;2.08;1.30;;;;;;;25.69;28.49;98298.22;4927761;28;20644;-58
2022/01/14 05:39:35;;;;;;;1.48;1.23;;;;;;;25.69;28.46;98303.50;4933560;28;20031;-56
2022/01/14 05:42:01;;;;;;;7.07;1.40;;;;;;;25.69;28.44;98302.63;4948037;28;20042;-58
2022/01/14 05:44:30;;;;;;;1.90;1.23;;;;;;;25.68;28.60;98293.91;4941428;28;20050;-58
2022/01/14 05:46:56;;;;;;;2.05;1.48;;;;;;;25.69;28.47;98292.97;4928495;28;20034;-58
2022/01/14 05:49:22;;;;;;;1.38;1.27;;;;;;;25.67;28.58;98293.94;4947965;28;20037;-58
2022/01/14 05:51:47;;;;;;;4.47;1.42;;;;;;;25.66;28.44;98298.31;4928141;28;20150;-58
2022/01/14 05:54:13;;;;;;;1.55;1.23;;;;;;;25.68;28.50;98295.66;4948865;28;20031;-59
2022/01/14 05:56:38;;;;;;;2.28;1.40;;;;;;;25.66;28.47;98298.31;4948834;28;20465;-59
2022/01/14 05:59:04;;;;;;;1.30;1.20;;;;;;;25.65;28.74;98298.34;4947786;28;20035;-58
2022/01/14 06:01:32;;;;;;;1.88;1.40;;;;;;;25.67;28.49;98299.19;4933360;28;20061;-58
2022/01/14 06:03:58;;;;;;;8.07;1.30;;;;;;;25.66;28.52;98302.72;4929112;28;20033;-59
2022/01/14 06:06:24;;;;;;;1.20;1.00;;;;;;;25.67;28.48;98299.19;4945536;28;20027;-58
2022/01/14 06:08:49;;;;;;;2.33;1.23;;;;;;;25.67;28.58;98304.44;4944623;28;20039;-58
2022/01/14 06:11:15;;;;;;;2.47;1.05;;;;;;;25.67;28.63;98305.28;4942225;28;20038;-58
2022/01/14 06:13:41;;;;;;;1.83;1.45;;;;;;;25.68;28.63;98300.91;4947801;28;20046;-58
2022/01/14 06:16:06;;;;;;;2.33;1.02;;;;;;;25.67;28.48;98302.66;4945257;28;20035;-58
2022/01/14 06:18:31;;;;;;;1.75;1.20;;;;;;;25.68;28.46;98300.91;4943772;28;20035;-60
2022/01/14 06:20:57;;;;;;;1.20;1.10;;;;;;;25.67;28.57;98293.94;4942081;28;20038;-57
2022/01/14 06:23:22;;;;;;;1.63;1.20;;;;;;;25.69;28.45;98302.63;4950340;28;20057;-57
2022/01/14 06:25:48;;;;;;;2.65;1.42;;;;;;;25.65;28.52;98293.09;4944475;28;20533;-59
2022/01/14 06:28:13;;;;;;;1.45;1.20;;;;;;;25.68;28.46;98295.66;4947926;28;20026;-58
2022/01/14 06:30:38;;;;;;;1.65;1.33;;;;;;;25.68;28.55;98295.66;4947622;28;20089;-58
2022/01/14 06:33:04;;;;;;;2.08;1.20;;;;;;;25.67;28.47;98288.69;4946061;28;20031;-58
2022/01/14 06:35:29;;;;;;;1.20;1.10;;;;;;;25.68;28.45;98290.41;4919260;28;21928;-58
2022/01/14 06:37:57;;;;;;;1.35;1.25;;;;;;;25.67;28.44;98289.53;4933743;28;21039;-58
2022/01/14 06:40:22;;;;;;;1.65;1.25;;;;;;;25.69;28.54;98289.47;4933260;28;20031;-55
2022/01/14 06:42:48;;;;;;;2.08;1.13;;;;;;;25.69;28.40;98286.84;4934166;28;20102;-58
2022/01/14 06:45:13;;;;;;;1.20;1.00;;;;;;;25.68;28.38;98279.91;4927680;28;20109;-57
2022/01/14 06:47:38;;;;;;;2.08;1.38;;;;;;;25.69;28.66;98284.22;4930131;28;20034;-58
2022/01/14 06:50:04;;;;;;;3.50;1.48;;;;;;;25.69;28.46;98281.59;4931164;28;20306;-58
2022/01/14 06:52:29;;;;;;;1.50;1.40;;;;;;;25.71;28.51;98285.06;4939405;28;20513;-58
2022/01/14 06:54:55;;;;;;;2.50;1.50;;;;;;;25.70;28.56;98278.06;4945913;28;20627;-57
2022/01/14 06:57:23;;;;;;;2.35;1.52;;;;;;;25.71;28.43;98285.06;4947147;28;20027;-57
2022/01/14 06:59:48;;;;;;;4.75;1.70;;;;;;;25.71;28.44;98285.06;4945819;28;20038;-57
2022/01/14 07:02:14;;;;;;;1.92;1.42;;;;;;;25.72;28.41;98291.16;4943996;28;20035;-57
2022/01/14 07:04:39;;;;;;;2.55;1.50;;;;;;;25.71;28.54;98292.94;4938108;28;20046;-56
2022/01/14 07:07:05;;;;;;;1.92;1.33;;;;;;;25.71;28.39;98295.56;4942187;28;20038;-58
2022/01/14 07:09:31;;;;;;;1.95;1.48;;;;;;;25.72;28.53;98292.03;4943257;28;20245;-58
2022/01/14 07:12:01;;;;;;;3.97;1.38;;;;;;;25.73;28.44;98299.00;4941148;28;20031;-58
2022/01/14 07:14:29;;;;;;;3.38;1.35;;;;;;;25.73;28.59;98299.00;4949627;28;20046;-59
2022/01/14 07:16:55;;;;;;;2.03;1.10;;;;;;;25.74;28.57;98302.50;4939819;28;20042;-59
2022/01/14 07:19:22;;;;;;;4.05;1.70;;;;;;;25.73;28.57;98299.00;4937958;28;20035;-59
2022/01/14 07:21:47;;;;;;;19.23;4.43;;;;;;;25.72;28.25;98299.03;4943465;28;20840;-57
2022/01/14 07:24:13;;;;;;;9.13;3.28;;;;;;;25.69;28.17;98303.50;4934413;28;20035;-58
2022/01/14 07:26:39;;;;;;;6.68;2.88;;;;;;;25.67;27.91;98309.69;4945621;28;20031;-58
2022/01/14 07:29:04;;;;;;;8.70;3.60;;;;;;;25.63;27.82;98313.31;4946542;28;20034;-58
2022/01/14 07:31:30;;;;;;;7.72;3.88;;;;;;;25.60;27.76;98308.13;4944560;28;20042;-58
2022/01/14 07:33:55;;;;;;;6.50;3.58;;;;;;;25.57;27.87;98315.19;4943737;28;20030;-58
2022/01/14 07:36:20;;;;;;;4.68;3.03;;;;;;;25.56;28.09;98313.47;4946628;28;20057;-56
2022/01/14 07:38:46;;;;;;;7.95;3.13;;;;;;;25.55;28.11;98322.22;4947493;28;21515;-57
2022/01/14 07:41:11;;;;;;;10.30;3.20;;;;;;;25.54;28.12;98320.50;4944885;28;20518;-55
2022/01/14 07:43:37;;;;;;;8.00;3.17;;;;;;;25.55;28.15;98329.25;4948181;28;20860;-61
2022/01/14 07:46:03;;;;;;;6.25;3.00;;;;;;;25.56;28.23;98326.56;4940503;28;20031;-60
2022/01/14 07:48:28;;;;;;;7.72;3.30;;;;;;;25.57;28.30;98332.69;4917724;28;20051;-62
2022/01/14 07:50:53;;;;;;;6.15;2.90;;;;;;;25.57;28.43;98324.81;4940106;28;21389;-60
2022/01/14 07:53:19;;;;;;;12.02;7.32;;;;;;;25.59;27.43;98332.66;4940507;28;20064;-64
2022/01/14 07:55:46;;;;;;;8.45;5.18;;;;;;;25.57;27.27;98325.69;4944283;28;20135;-59
2022/01/14 07:58:11;;;;;;;7.80;4.22;;;;;;;25.57;27.30;98328.31;4936737;28;20079;-58
2022/01/14 08:00:37;;;;;;;9.75;4.13;;;;;;;25.58;27.54;98337.03;4930860;28;20050;-59
2022/01/14 08:03:02;;;;;;;9.68;3.63;;;;;;;25.57;27.57;98335.31;4942670;28;20549;-59
2022/01/14 08:05:28;;;;;;;9.25;3.67;;;;;;;25.57;27.52;98330.94;4943695;28;20031;-60
2022/01/14 08:07:56;;;;;;;7.78;2.97;;;;;;;25.56;27.92;98331.81;4944409;28;20037;-59
2022/01/14 08:10:22;;;;;;;5.85;3.40;;;;;;;25.57;27.89;98335.31;4948464;28;20037;-58
2022/01/14 08:12:47;;;;;;;10.27;3.08;;;;;;;25.57;27.92;98330.94;4944597;28;20747;-58
2022/01/14 08:15:13;;;;;;;5.38;3.05;;;;;;;25.55;27.92;98337.97;4943706;28;20845;-58
2022/01/14 08:17:38;;;;;;;7.38;3.00;;;;;;;25.57;28.17;98340.56;4932295;28;20031;-58
2022/01/14 08:20:04;;;;;;;6.05;3.10;;;;;;;25.56;28.32;98333.63;4943411;28;20039;-58
2022/01/14 08:22:31;;;;;;;8.55;2.65;;;;;;;25.57;28.40;98336.19;4945766;28;20047;-59
2022/01/14 08:24:57;;;;;;;5.65;3.08;;;;;;;25.57;28.25;98338.81;4946733;28;20035;-58
2022/01/14 08:27:22;;;;;;;6.82;3.33;;;;;;;25.59;28.56;98332.66;4947195;28;20654;-58
2022/01/14 08:29:50;;;;;;;7.82;3.33;;;;;;;25.60;28.56;98334.38;4945678;28;20045;-59
2022/01/14 08:32:15;;;;;;;5.32;2.88;;;;;;;25.60;28.68;98332.63;4947417;28;20454;-59
2022/01/14 08:34:40;;;;;;;5.28;3.00;;;;;;;25.61;28.63;98334.34;4945037;28;20042;-58
2022/01/14 08:37:06;;;;;;;7.95;2.95;;;;;;;25.61;28.73;98333.47;4945550;28;20027;-58
2022/01/14 08:39:31;;;;;;;5.03;3.00;;;;;;;25.62;28.73;98337.84;4947244;28;20039;-59
2022/01/14 08:41:58;;;;;;;8.65;3.05;;;;;;;25.63;28.71;98334.31;4955843;28;20031;-58
2022/01/14 08:44:24;;;;;;;8.95;3.20;;;;;;;25.64;28.85;98341.28;4946016;28;20027;-58
2022/01/14 08:46:49;;;;;;;6.32;3.40;;;;;;;25.64;28.89;98336.88;4946287;28;20023;-58
2022/01/14 08:49:15;;;;;;;6.60;3.00;;;;;;;25.64;28.80;98330.78;4945694;28;20031;-59
2022/01/14 08:51:40;;;;;;;10.32;3.88;;;;;;;25.66;28.72;98337.69;4929239;28;20043;-58
2022/01/14 08:54:07;;;;;;;12.63;3.45;;;;;;;25.69;29.04;98329.75;4942391;28;20097;-58
2022/01/14 08:56:32;;;;;;;17.00;4.35;;;;;;;25.70;28.96;98335.84;4943739;28;21875;-57
2022/01/14 08:59:00;;;;;;;15.20;4.57;;;;;;;25.73;28.91;98334.91;4943725;28;20042;-59
2022/01/14 09:01:26;;;;;;;16.63;4.65;;;;;;;25.74;29.24;98326.97;4947286;28;20039;-58
2022/01/14 09:03:51;;;;;;;21.73;4.85;;;;;;;25.77;29.11;98328.63;4946749;28;20034;-58
2022/01/14 09:06:17;;;;;;;14.85;4.53;;;;;;;25.79;29.18;98318.97;4944630;28;20071;-58
2022/01/14 09:08:42;;;;;;;11.82;4.05;;;;;;;25.82;28.90;98319.72;4947830;28;20035;-57
2022/01/14 09:11:08;;;;;;;30.30;4.72;;;;;;;25.85;28.96;98320.56;4947073;28;20030;-56
2022/01/14 09:13:34;;;;;;;14.27;5.07;;;;;;;25.87;28.97;98321.38;4944477;28;20031;-57
2022/01/14 09:15:59;;;;;;;15.52;4.65;;;;;;;25.88;28.95;98329.19;4945209;28;20049;-56
2022/01/14 09:18:25;;;;;;;15.07;4.63;;;;;;;25.91;28.88;98320.38;4945154;28;20666;-59
2022/01/14 09:20:51;;;;;;;16.15;4.65;;;;;;;25.93;28.81;98326.47;4945529;28;20514;-59
2022/01/14 09:23:23;;;;;;;15.50;4.93;;;;;;;25.96;28.87;98327.22;4946031;28;20057;-59
2022/01/14 09:25:48;;;;;;;16.05;5.80;;;;;;;25.99;28.71;98331.53;4951255;28;20031;-58
2022/01/14 09:28:14;;;;;;;12.38;5.25;;;;;;;26.02;28.85;98331.44;4949645;28;20038;-57
2022/01/14 09:30:39;;;;;;;12.10;4.93;;;;;;;26.04;28.63;98326.97;4950246;28;20502;-59
2022/01/14 09:33:06;;;;;;;17.38;5.03;;;;;;;26.07;28.56;98324.28;4957721;28;20035;-55
2022/01/14 09:35:32;;;;;;;13.35;4.93;;;;;;;26.12;28.64;98325.91;4950528;28;20031;-58
2022/01/14 09:37:57;;;;;;;14.02;4.50;;;;;;;26.13;28.62;98330.25;4951813;28;20037;-58
2022/01/14 09:40:22;;;;;;;13.18;4.10;;;;;;;26.16;28.41;98330.16;4951160;28;20034;-57
2022/01/14 09:42:48;;;;;;;11.02;4.20;;;;;;;26.18;28.58;98330.97;4948571;28;20034;-58
2022/01/14 09:45:14;;;;;;;9.45;4.45;;;;;;;26.20;28.45;98326.53;4948586;28;20689;-58
2022/01/14 09:47:39;;;;;;;12.48;4.40;;;;;;;26.22;28.43;98329.97;4946769;28;20620;-58
2022/01/14 09:50:05;;;;;;;12.45;4.20;;;;;;;26.25;28.60;98326.38;4948337;28;20485;-57
2022/01/14 09:52:30;;;;;;;8.18;4.18;;;;;;;26.26;28.41;98330.75;4945475;28;20087;-57
2022/01/14 09:54:56;;;;;;;13.45;4.38;;;;;;;26.28;28.41;98326.31;4946282;28;20027;-58
2022/01/14 09:57:21;;;;;;;11.82;4.45;;;;;;;26.29;28.37;98328.91;4951190;28;20638;-58
2022/01/14 09:59:47;;;;;;;14.35;3.80;;;;;;;26.30;28.59;98328.00;4946087;28;20050;-59
2022/01/14 10:02:28;;;;;;;8.35;3.65;;;;;;;26.31;28.48;98332.34;4945863;28;20035;-58
2022/01/14 10:04:54;;;;;;;8.18;3.63;;;;;;;26.33;28.26;98341.06;4947791;28;20038;-59
2022/01/14 10:07:19;;;;;;;13.80;4.05;;;;;;;26.35;28.45;98333.09;4948694;28;20034;-59
2022/01/14 10:09:53;;;;;;;14.45;4.45;;;;;;;26.35;28.49;98333.97;4949677;28;20043;-56
2022/01/14 10:12:20;;;;;;;13.30;4.20;;;;;;;26.37;28.58;98335.69;4948506;28;20101;-59
2022/01/14 10:14:55;;;;;;;9.68;3.90;;;;;;;26.38;28.33;98334.78;4949726;28;20114;-58
2022/01/14 10:17:21;;;;;;;7.30;3.97;;;;;;;26.39;28.45;98326.84;4950463;28;20041;-58
2022/01/14 10:19:46;;;;;;;8.52;3.85;;;;;;;26.40;28.44;98328.56;4928182;28;20031;-60
2022/01/14 10:22:22;;;;;;;6.85;3.55;;;;;;;26.42;28.46;98333.75;4947816;28;20955;-58
2022/01/14 10:24:54;;;;;;;5.60;3.15;;;;;;;26.42;28.49;98331.13;4948599;28;20034;-58
2022/01/14 10:27:39;;;;;;;7.90;3.47;;;;;;;26.44;28.50;98334.59;4946705;28;20043;-58
2022/01/14 10:30:10;;;;;;;8.52;3.55;;;;;;;26.45;28.51;98328.41;4947716;28;20684;-58
2022/01/14 10:32:37;;;;;;;9.50;3.40;;;;;;;26.46;28.53;98327.50;4952684;28;20075;-58
2022/01/14 10:35:07;;;;;;;6.53;3.35;;;;;;;26.46;28.60;98327.50;4949797;28;20043;-60
2022/01/14 10:37:34;;;;;;;10.65;3.50;;;;;;;26.46;28.64;98325.75;4946331;28;20046;-57
2022/01/14 10:39:59;;;;;;;7.78;3.47;;;;;;;26.47;28.76;98316.09;4936863;28;20139;-58
2022/01/14 10:42:29;;;;;;;16.60;4.05;;;;;;;26.45;28.57;98317.91;4948604;28;20041;-58
2022/01/14 10:44:55;;;;;;;19.27;3.53;;;;;;;26.43;28.73;98317.09;4947911;28;20019;-59
2022/01/14 10:47:23;;;;;;;9.02;3.60;;;;;;;26.41;28.83;98305.75;4927479;28;20037;-56
2022/01/14 10:49:50;;;;;;;9.70;3.35;;;;;;;26.39;28.70;98299.72;4948409;28;20054;-58
2022/01/14 10:52:20;;;;;;;10.05;3.35;;;;;;;26.41;28.90;98295.25;4946160;28;20033;-58
2022/01/14 10:54:47;;;;;;;6.28;3.05;;;;;;;26.41;29.00;98305.75;4944936;28;20579;-58
2022/01/14 10:57:14;;;;;;;6.88;3.30;;;;;;;26.41;28.72;98306.63;4950048;28;20030;-58
2022/01/14 10:59:39;;;;;;;6.28;3.22;;;;;;;26.41;28.90;98301.38;4949027;28;20031;-58
2022/01/14 11:02:37;;;;;;;9.70;3.20;;;;;;;26.41;28.96;98306.63;4948505;28;20034;-58
2022/01/14 11:05:09;;;;;;;8.73;3.10;;;;;;;26.41;28.88;98301.38;4943126;28;20583;-59
2022/01/14 11:07:35;;;;;;;8.52;3.47;;;;;;;26.40;29.02;98294.41;4946677;28;20035;-58
2022/01/14 11:10:01;;;;;;;7.60;3.15;;;;;;;26.42;28.95;98302.22;4946647;28;20031;-58
2022/01/14 11:12:26;;;;;;;4.65;2.80;;;;;;;26.43;29.13;98296.06;4945657;28;20026;-58
2022/01/14 11:14:51;;;;;;;8.20;3.30;;;;;;;26.43;29.12;98294.28;4946779;28;20034;-58
2022/01/14 11:17:17;;;;;;;4.90;2.88;;;;;;;26.43;29.12;98285.56;4945455;28;20039;-58
2022/01/14 11:19:46;;;;;;;5.82;2.95;;;;;;;26.44;29.22;98287.28;4947094;28;20097;-58
2022/01/14 11:24:56;;;;;;;5.43;2.88;;;;;;;26.45;29.24;98283.72;4948566;28;20520;-55
2022/01/14 11:27:22;;;;;;;6.85;2.95;;;;;;;26.45;29.20;98275.84;4945722;28;20035;-58
2022/01/14 11:29:48;;;;;;;5.05;2.63;;;;;;;26.46;29.33;98272.28;4945502;28;20022;-59
2022/01/14 11:32:13;;;;;;;5.40;2.60;;;;;;;26.46;29.49;98267.03;4946953;28;20030;-58
2022/01/14 11:34:42;;;;;;;6.00;2.50;;;;;;;26.47;29.49;98255.66;4930459;28;20027;-56
2022/01/14 11:37:13;;;;;;;4.05;2.40;;;;;;;26.47;29.38;98253.00;4948710;28;20401;-58
2022/01/14 11:39:40;;;;;;;4.85;2.63;;;;;;;26.47;29.51;98247.75;4945781;28;20161;-58
2022/01/14 11:42:12;;;;;;;3.88;2.28;;;;;;;26.48;29.45;98244.22;4935643;28;20035;-57
2022/01/14 11:44:41;;;;;;;5.25;2.40;;;;;;;26.48;29.50;98246.84;4948236;28;20037;-58
2022/01/14 11:47:06;;;;;;;4.47;2.25;;;;;;;26.48;29.66;98238.94;4946338;28;20027;-58
2022/01/14 11:49:37;;;;;;;5.47;2.50;;;;;;;26.48;29.53;98238.94;4945741;28;20034;-57
2022/01/14 11:52:04;;;;;;;4.10;2.20;;;;;;;26.49;29.52;98224.88;4946330;28;20386;-58
2022/01/14 11:54:46;;;;;;;4.57;2.60;;;;;;;26.47;29.68;98221.47;4943541;28;20791;-58
2022/01/14 11:57:13;;;;;;;5.60;2.20;;;;;;;26.48;29.60;98231.91;4932976;28;20522;-56